createdAt,value
2022-12-07T00:01:08.640Z,100.00
2022-12-07T00:03:35.589Z,100.00
2022-12-07T00:06:03.018Z,100.00
2022-12-07T00:08:29.771Z,100.00
2022-12-07T00:10:56.576Z,100.00
2022-12-07T00:13:23.161Z,100.00
2022-12-07T00:15:49.818Z,100.00
2022-12-07T00:18:16.418Z,100.00
2022-12-07T00:20:43.082Z,100.00
2022-12-07T00:23:09.782Z,100.00
2022-12-07T00:25:36.365Z,100.00
2022-12-07T00:28:03.129Z,100.00
2022-12-07T00:30:29.707Z,100.00
2022-12-07T00:32:56.666Z,100.00
2022-12-07T00:35:23.228Z,100.00
2022-12-07T00:37:49.877Z,100.00
2022-12-07T00:40:16.527Z,100.00
2022-12-07T00:42:43.166Z,100.00
2022-12-07T00:45:10.036Z,100.00
2022-12-07T00:47:36.594Z,100.00
2022-12-07T00:50:04.054Z,100.00
2022-12-07T00:52:30.875Z,100.00
2022-12-07T00:54:57.491Z,100.00
2022-12-07T00:57:24.088Z,100.00
2022-12-07T00:59:50.680Z,100.00
2022-12-07T01:02:17.339Z,100.00
2022-12-07T01:04:43.938Z,100.00
2022-12-07T01:07:10.531Z,100.00
2022-12-07T01:09:37.100Z,100.00
2022-12-07T01:12:03.874Z,100.00
2022-12-07T01:14:30.504Z,100.00
2022-12-07T01:16:57.113Z,100.00
2022-12-07T01:19:23.738Z,100.00
2022-12-07T01:21:50.370Z,100.00
2022-12-07T01:24:16.940Z,100.00
2022-12-07T01:26:43.505Z,100.00
2022-12-07T01:29:10.090Z,100.00
2022-12-07T01:31:36.766Z,100.00
2022-12-07T01:34:03.444Z,100.00
2022-12-07T01:36:31.486Z,100.00
2022-12-07T01:38:59.414Z,100.00
2022-12-07T01:41:27.207Z,100.00
2022-12-07T01:44:26.067Z,100.00
2022-12-07T01:46:59.505Z,100.00
2022-12-07T01:49:28.926Z,100.00
2022-12-07T01:51:59.576Z,100.00
2022-12-07T01:54:26.695Z,100.00
2022-12-07T01:56:55.843Z,100.00
2022-12-07T01:59:25.715Z,100.00
2022-12-07T02:01:53.111Z,100.00
2022-12-07T02:04:19.864Z,100.00
2022-12-07T02:06:47.923Z,100.00
2022-12-07T02:09:14.698Z,100.00
2022-12-07T02:11:42.026Z,100.00
2022-12-07T02:14:08.685Z,100.00
2022-12-07T02:16:53.751Z,100.00
2022-12-07T02:19:23.155Z,100.00
2022-12-07T02:21:49.810Z,100.00
2022-12-07T02:24:16.414Z,100.00
2022-12-07T02:26:56.829Z,100.00
2022-12-07T02:29:23.481Z,100.00
2022-12-07T02:31:55.081Z,100.00
2022-12-07T02:34:27.580Z,100.00
2022-12-07T02:36:56.859Z,100.00
2022-12-07T02:39:33.007Z,100.00
2022-12-07T02:42:03.902Z,100.00
2022-12-07T02:44:32.978Z,100.00
2022-12-07T02:47:05.054Z,100.00
2022-12-07T02:49:32.751Z,100.00
2022-12-07T02:51:59.373Z,100.00
2022-12-07T02:54:26.027Z,100.00
2022-12-07T02:57:11.439Z,100.00
2022-12-07T02:59:48.893Z,100.00
2022-12-07T03:02:15.559Z,100.00
2022-12-07T03:05:00.724Z,100.00
2022-12-07T03:07:36.290Z,100.00
2022-12-07T03:10:11.874Z,100.00
2022-12-07T03:12:43.861Z,100.00
2022-12-07T03:15:17.626Z,100.00
2022-12-07T03:17:45.423Z,100.00
2022-12-07T03:20:14.431Z,100.00
2022-12-07T03:22:43.362Z,100.00
2022-12-07T03:25:11.641Z,100.00
2022-12-07T03:27:41.519Z,100.00
2022-12-07T03:30:17.502Z,100.00
2022-12-07T03:32:51.556Z,100.00
2022-12-07T03:35:34.320Z,100.00
2022-12-07T03:38:04.321Z,100.00
2022-12-07T03:40:33.980Z,100.00
2022-12-07T03:43:02.655Z,100.00
2022-12-07T03:45:34.028Z,100.00
2022-12-07T03:48:08.384Z,100.00
2022-12-07T03:50:39.797Z,100.00
2022-12-07T03:53:11.327Z,100.00
2022-12-07T03:55:40.369Z,100.00
2022-12-07T03:58:10.123Z,100.00
2022-12-07T04:00:36.809Z,100.00
2022-12-07T04:03:03.545Z,100.00
2022-12-07T04:05:30.363Z,100.00
2022-12-07T04:07:57.036Z,100.00
2022-12-07T04:10:23.613Z,100.00
2022-12-07T04:12:50.208Z,100.00
2022-12-07T04:15:16.841Z,100.00
2022-12-07T04:17:43.441Z,100.00
2022-12-07T04:20:10.469Z,100.00
2022-12-07T04:22:37.203Z,100.00
2022-12-07T04:25:04.063Z,100.00
2022-12-07T04:27:30.745Z,100.00
2022-12-07T04:29:57.392Z,100.00
2022-12-07T04:32:24.491Z,100.00
2022-12-07T04:34:55.438Z,100.00
2022-12-07T04:37:22.812Z,100.00
2022-12-07T04:39:49.728Z,100.00
2022-12-07T04:42:16.324Z,100.00
2022-12-07T04:44:42.952Z,100.00
2022-12-07T04:47:09.505Z,100.00
2022-12-07T04:49:36.168Z,100.00
2022-12-07T04:52:02.835Z,100.00
2022-12-07T04:54:29.525Z,100.00
2022-12-07T04:56:56.126Z,100.00
2022-12-07T04:59:22.806Z,100.00
2022-12-07T05:01:49.505Z,100.00
2022-12-07T05:04:17.159Z,100.00
2022-12-07T05:06:43.816Z,100.00
2022-12-07T05:09:10.656Z,100.00
2022-12-07T05:11:40.464Z,100.00
2022-12-07T05:14:12.193Z,100.00
2022-12-07T05:16:39.174Z,100.00
2022-12-07T05:19:06.225Z,100.00
2022-12-07T05:21:32.804Z,100.00
2022-12-07T05:23:59.487Z,100.00
2022-12-07T05:26:26.289Z,100.00
2022-12-07T05:28:54.013Z,100.00
2022-12-07T05:31:23.561Z,100.00
2022-12-07T05:33:50.364Z,100.00
2022-12-07T05:36:17.138Z,100.00
2022-12-07T05:38:43.764Z,100.00
2022-12-07T05:41:33.336Z,100.00
2022-12-07T05:43:59.978Z,100.00
2022-12-07T05:46:26.681Z,100.00
2022-12-07T05:48:53.477Z,100.00
2022-12-07T05:51:20.172Z,100.00
2022-12-07T05:53:46.871Z,100.00
2022-12-07T05:56:13.471Z,100.00
2022-12-07T05:58:58.789Z,100.00
2022-12-07T06:01:25.453Z,100.00
2022-12-07T06:03:52.126Z,100.00
2022-12-07T06:06:18.752Z,100.00
2022-12-07T06:08:45.534Z,100.00
2022-12-07T06:11:30.895Z,100.00
2022-12-07T06:13:57.583Z,100.00
2022-12-07T06:16:24.210Z,100.00
2022-12-07T06:18:50.803Z,100.00
2022-12-07T06:21:17.484Z,100.00
2022-12-07T06:23:44.081Z,100.00
2022-12-07T06:26:10.783Z,100.00
2022-12-07T06:28:37.437Z,100.00
2022-12-07T06:31:05.623Z,100.00
2022-12-07T06:33:33.937Z,100.00
2022-12-07T06:36:00.598Z,100.00
2022-12-07T06:38:27.246Z,100.00
2022-12-07T06:40:53.818Z,100.00
2022-12-07T06:43:21.391Z,100.00
2022-12-07T06:45:48.036Z,100.00
2022-12-07T06:48:15.236Z,100.00
2022-12-07T06:50:42.020Z,100.00
2022-12-07T06:53:08.833Z,100.00
2022-12-07T06:55:35.507Z,100.00
2022-12-07T06:58:02.811Z,100.00
2022-12-07T07:00:29.976Z,100.00
2022-12-07T07:02:56.719Z,100.00
2022-12-07T07:05:23.525Z,100.00
2022-12-07T07:08:21.780Z,100.00
2022-12-07T07:10:37.273Z,100.00
2022-12-07T07:13:03.973Z,100.00
2022-12-07T07:15:30.754Z,100.00
2022-12-07T07:17:57.541Z,100.00
2022-12-07T07:20:24.244Z,100.00
2022-12-07T07:22:50.889Z,100.00
2022-12-07T07:25:17.512Z,100.00
2022-12-07T07:27:44.172Z,100.00
2022-12-07T07:30:10.996Z,100.00
2022-12-07T07:32:37.694Z,100.00
2022-12-07T07:35:04.570Z,100.00
2022-12-07T07:37:31.323Z,100.00
2022-12-07T07:39:57.880Z,100.00
2022-12-07T07:42:24.568Z,100.00
2022-12-07T07:44:51.223Z,100.00
2022-12-07T07:47:17.848Z,100.00
2022-12-07T07:49:48.177Z,100.00
2022-12-07T07:52:15.098Z,100.00
2022-12-07T07:54:41.789Z,100.00
2022-12-07T07:57:08.722Z,100.00
2022-12-07T07:59:35.391Z,100.00
2022-12-07T08:02:02.149Z,100.00
2022-12-07T08:04:28.835Z,100.00
2022-12-07T08:06:55.527Z,100.00
2022-12-07T08:09:22.268Z,100.00
2022-12-07T08:11:48.825Z,100.00
2022-12-07T08:14:15.491Z,100.00
2022-12-07T08:16:42.040Z,100.00
2022-12-07T08:19:08.704Z,100.00
2022-12-07T08:21:35.492Z,100.00
2022-12-07T08:24:02.201Z,100.00
2022-12-07T08:26:28.862Z,100.00
2022-12-07T08:28:55.480Z,100.00
2022-12-07T08:31:22.294Z,100.00
2022-12-07T08:33:49.063Z,100.00
2022-12-07T08:36:16.321Z,100.00
2022-12-07T08:39:01.361Z,100.00
2022-12-07T08:41:29.798Z,100.00
2022-12-07T08:43:56.426Z,100.00
2022-12-07T08:46:26.958Z,100.00
2022-12-07T08:49:19.959Z,100.00
2022-12-07T08:51:47.197Z,100.00
2022-12-07T08:54:17.579Z,100.00
2022-12-07T08:56:45.382Z,100.00
2022-12-07T08:59:13.768Z,100.00
2022-12-07T09:01:40.462Z,100.00
2022-12-07T09:04:07.197Z,100.00
2022-12-07T09:06:34.433Z,100.00
2022-12-07T09:09:02.371Z,100.00
2022-12-07T09:11:29.254Z,100.00
2022-12-07T09:13:56.162Z,100.00
2022-12-07T09:16:23.196Z,100.00
2022-12-07T09:18:49.854Z,100.00
2022-12-07T09:21:16.480Z,100.00
2022-12-07T09:23:43.674Z,100.00
2022-12-07T09:26:11.169Z,100.00
2022-12-07T09:28:38.068Z,100.00
2022-12-07T09:33:59.235Z,100.00
2022-12-07T09:36:26.434Z,100.00
2022-12-07T09:38:53.164Z,100.00
2022-12-07T09:41:20.642Z,100.00
2022-12-07T09:43:48.081Z,100.00
2022-12-07T09:46:16.545Z,100.00
2022-12-07T09:48:43.913Z,100.00
2022-12-07T09:51:19.460Z,100.00
2022-12-07T09:53:50.180Z,100.00
2022-12-07T09:56:17.959Z,100.00
2022-12-07T09:58:44.726Z,100.00
2022-12-07T10:01:21.980Z,100.00
2022-12-07T10:03:51.774Z,100.00
2022-12-07T10:06:18.479Z,100.00
2022-12-07T10:08:45.092Z,100.00
2022-12-07T10:11:12.167Z,100.00
2022-12-07T10:13:40.235Z,100.00
2022-12-07T10:16:08.021Z,100.00
2022-12-07T10:18:45.417Z,100.00
2022-12-07T10:21:13.836Z,100.00
2022-12-07T10:23:41.730Z,100.00
2022-12-07T10:26:21.755Z,100.00
2022-12-07T10:28:49.700Z,100.00
2022-12-07T10:31:18.204Z,100.00
2022-12-07T10:34:01.307Z,100.00
2022-12-07T10:36:35.609Z,100.00
2022-12-07T10:39:04.767Z,100.00
2022-12-07T10:41:31.519Z,100.00
2022-12-07T10:43:58.806Z,100.00
2022-12-07T10:46:46.711Z,100.00
2022-12-07T10:49:28.766Z,100.00
2022-12-07T10:52:04.777Z,100.00
2022-12-07T10:54:50.239Z,100.00
2022-12-07T10:57:29.121Z,100.00
2022-12-07T10:59:55.732Z,100.00
2022-12-07T11:02:41.311Z,100.00
2022-12-07T11:05:26.872Z,100.00
2022-12-07T11:08:06.512Z,100.00
2022-12-07T11:10:40.767Z,100.00
2022-12-07T11:13:22.558Z,100.00
2022-12-07T11:16:02.213Z,100.00
2022-12-07T11:19:07.533Z,100.00
2022-12-07T11:21:49.475Z,100.00
2022-12-07T11:24:18.213Z,100.00
2022-12-07T11:27:03.421Z,100.00
2022-12-07T11:29:42.033Z,100.00
2022-12-07T11:32:11.616Z,100.00
2022-12-07T11:34:49.845Z,100.00
2022-12-07T11:37:19.230Z,100.00
2022-12-07T11:39:50.333Z,100.00
2022-12-07T11:42:28.570Z,100.00
2022-12-07T11:45:02.976Z,100.00
2022-12-07T11:47:29.614Z,100.00
2022-12-07T11:50:01.999Z,100.00
2022-12-07T11:52:36.174Z,100.00
2022-12-07T11:55:03.511Z,100.00
2022-12-07T11:57:52.270Z,100.00
2022-12-07T12:00:19.227Z,100.00
2022-12-07T12:02:56.918Z,100.00
2022-12-07T12:05:24.727Z,100.00
2022-12-07T12:10:53.274Z,100.00
2022-12-07T12:16:24.229Z,100.00
2022-12-07T12:19:16.877Z,100.00
2022-12-07T12:21:43.703Z,100.00
2022-12-07T12:24:19.556Z,100.00
2022-12-07T12:26:52.370Z,100.00
2022-12-07T12:29:29.428Z,100.00
2022-12-07T12:32:07.556Z,61.81
2022-12-07T12:34:42.012Z,57.93
2022-12-07T12:37:29.535Z,58.40
2022-12-07T12:40:15.119Z,58.86
2022-12-07T12:42:52.222Z,60.41
2022-12-07T12:45:21.575Z,59.39
2022-12-07T12:48:04.168Z,63.29
2022-12-07T12:50:35.140Z,63.38
2022-12-07T12:53:14.016Z,65.73
2022-12-07T12:55:51.220Z,67.31
2022-12-07T12:58:20.871Z,67.32
2022-12-07T13:00:48.390Z,66.44
2022-12-07T13:03:31.091Z,66.38
2022-12-07T13:06:17.867Z,65.67
2022-12-07T13:08:44.971Z,65.09
2022-12-07T13:11:41.071Z,65.76
2022-12-07T13:14:29.643Z,66.11
2022-12-07T13:17:00.621Z,67.65
2022-12-07T13:19:47.282Z,67.84
2022-12-07T13:22:32.481Z,68.45
2022-12-07T13:25:04.690Z,68.12
2022-12-07T13:27:31.654Z,66.87
2022-12-07T13:29:58.492Z,66.25
2022-12-07T13:32:26.974Z,66.11
2022-12-07T13:34:53.612Z,66.90
2022-12-07T13:37:26.943Z,66.71
2022-12-07T13:39:57.808Z,67.21
2022-12-07T13:42:28.485Z,66.63
2022-12-07T13:44:55.828Z,63.59
2022-12-07T13:47:43.026Z,60.88
2022-12-07T13:50:29.501Z,54.54
2022-12-07T13:52:57.166Z,51.51
2022-12-07T13:55:24.004Z,49.62
2022-12-07T13:57:53.745Z,49.74
2022-12-07T14:00:22.410Z,49.58
2022-12-07T14:02:56.975Z,50.03
2022-12-07T14:05:28.103Z,52.34
2022-12-07T14:07:55.870Z,52.99
2022-12-07T14:10:27.522Z,55.20
2022-12-07T14:12:55.684Z,57.01
2022-12-07T14:15:24.418Z,59.05
2022-12-07T14:17:52.811Z,61.27
2022-12-07T14:20:32.354Z,62.22
2022-12-07T14:22:59.031Z,64.17
2022-12-07T14:25:28.547Z,64.24
2022-12-07T14:27:59.622Z,65.24
2022-12-07T14:30:30.701Z,69.51
2022-12-07T14:33:01.327Z,72.11
2022-12-07T14:35:28.404Z,74.72
2022-12-07T14:37:55.159Z,78.07
2022-12-07T14:40:26.305Z,81.94
2022-12-07T14:42:56.042Z,86.68
2022-12-07T14:45:23.623Z,89.36
2022-12-07T14:50:39.718Z,94.45
2022-12-07T14:55:49.029Z,100.00
2022-12-07T14:58:16.516Z,100.00
2022-12-07T15:00:43.224Z,100.00
2022-12-07T15:03:09.934Z,100.00
2022-12-07T15:05:37.592Z,100.00
2022-12-07T15:08:04.328Z,100.00
2022-12-07T15:10:33.040Z,100.00
2022-12-07T15:13:18.615Z,100.00
2022-12-07T15:15:45.403Z,100.00
2022-12-07T15:18:12.011Z,100.00
2022-12-07T15:20:39.036Z,100.00
2022-12-07T15:23:05.670Z,100.00
2022-12-07T15:25:32.285Z,100.00
2022-12-07T15:27:58.889Z,100.00
2022-12-07T15:30:25.561Z,100.00
2022-12-07T15:32:52.568Z,100.00
2022-12-07T15:35:19.283Z,100.00
2022-12-07T15:37:45.910Z,100.00
2022-12-07T15:40:13.238Z,100.00
2022-12-07T15:42:39.878Z,100.00
2022-12-07T15:45:07.846Z,100.00
2022-12-07T15:47:54.112Z,100.00
2022-12-07T15:50:23.679Z,100.00
2022-12-07T15:52:50.328Z,100.00
2022-12-07T15:55:17.003Z,100.00
2022-12-07T15:57:43.940Z,100.00
2022-12-07T16:00:11.344Z,100.00
2022-12-07T16:02:40.018Z,100.00
2022-12-07T16:05:07.247Z,100.00
2022-12-07T16:07:33.809Z,100.00
2022-12-07T16:10:00.593Z,100.00
2022-12-07T16:12:27.202Z,100.00
2022-12-07T16:14:53.851Z,100.00
2022-12-07T16:17:20.517Z,100.00
2022-12-07T16:19:47.117Z,100.00
2022-12-07T16:22:13.887Z,100.00
2022-12-07T16:24:40.525Z,100.00
2022-12-07T16:27:07.552Z,100.00
2022-12-07T16:29:34.144Z,100.00
2022-12-07T16:32:01.058Z,100.00
2022-12-07T16:34:27.692Z,100.00
2022-12-07T16:37:03.581Z,100.00
2022-12-07T16:39:31.102Z,100.00
2022-12-07T16:41:57.714Z,100.00
2022-12-07T16:44:24.673Z,100.00
2022-12-07T16:46:51.448Z,100.00
2022-12-07T16:49:19.452Z,100.00
2022-12-07T16:51:47.371Z,100.00
2022-12-07T16:54:14.149Z,100.00
2022-12-07T16:56:40.802Z,100.00
2022-12-07T16:59:07.479Z,100.00
2022-12-07T17:01:35.451Z,100.00
2022-12-07T17:04:02.835Z,100.00
2022-12-07T17:06:30.181Z,100.00
2022-12-07T17:08:57.541Z,100.00
2022-12-07T17:11:25.798Z,100.00
2022-12-07T17:14:11.133Z,100.00
2022-12-07T17:16:38.353Z,100.00
2022-12-07T17:19:06.633Z,100.00
2022-12-07T17:21:33.753Z,100.00
2022-12-07T17:24:00.987Z,100.00
2022-12-07T17:26:34.921Z,100.00
2022-12-07T17:29:02.914Z,100.00
2022-12-07T17:31:29.736Z,100.00
2022-12-07T17:33:56.509Z,100.00
2022-12-07T17:36:24.811Z,100.00
2022-12-07T17:38:52.103Z,100.00
2022-12-07T17:41:46.157Z,100.00
2022-12-07T17:44:14.256Z,100.00
2022-12-07T17:46:41.352Z,100.00
2022-12-07T17:49:08.137Z,100.00
2022-12-07T17:51:53.705Z,100.00
2022-12-07T17:54:20.405Z,100.00
2022-12-07T17:56:47.198Z,100.00
2022-12-07T17:59:14.133Z,100.00
2022-12-07T18:01:41.462Z,100.00
2022-12-07T18:04:08.212Z,100.00
2022-12-07T18:06:35.441Z,100.00
2022-12-07T18:09:02.497Z,100.00
2022-12-07T18:11:29.188Z,100.00
2022-12-07T18:13:55.897Z,100.00
2022-12-07T18:16:24.344Z,100.00
2022-12-07T18:18:53.959Z,100.00
2022-12-07T18:21:25.034Z,100.00
2022-12-07T18:23:53.566Z,100.00
2022-12-07T18:26:20.774Z,100.00
2022-12-07T18:28:47.520Z,100.00
2022-12-07T18:31:15.784Z,100.00
2022-12-07T18:33:43.372Z,100.00
2022-12-07T18:36:10.787Z,100.00
2022-12-07T18:38:37.928Z,100.00
2022-12-07T18:41:07.144Z,100.00
2022-12-07T18:43:33.788Z,100.00
2022-12-07T18:46:00.438Z,100.00
2022-12-07T18:48:27.414Z,100.00
2022-12-07T18:51:01.038Z,100.00
2022-12-07T18:53:27.654Z,100.00
2022-12-07T18:56:13.609Z,100.00
2022-12-07T18:59:00.233Z,100.00
2022-12-07T19:01:26.893Z,100.00
2022-12-07T19:03:53.685Z,100.00
2022-12-07T19:06:20.303Z,100.00
2022-12-07T19:08:47.017Z,100.00
2022-12-07T19:11:39.240Z,100.00
2022-12-07T19:14:05.920Z,100.00
2022-12-07T19:16:32.613Z,100.00
2022-12-07T19:18:59.311Z,100.00
2022-12-07T19:21:25.983Z,100.00
2022-12-07T19:23:52.661Z,100.00
2022-12-07T19:26:19.397Z,100.00
2022-12-07T19:28:46.553Z,100.00
2022-12-07T19:31:13.428Z,100.00
2022-12-07T19:33:40.573Z,100.00
2022-12-07T19:36:07.594Z,100.00
2022-12-07T19:38:34.759Z,100.00
2022-12-07T19:41:05.299Z,100.00
2022-12-07T19:43:32.639Z,100.00
2022-12-07T19:46:05.899Z,100.00
2022-12-07T19:48:32.981Z,100.00
2022-12-07T19:51:05.935Z,100.00
2022-12-07T19:53:33.391Z,100.00
2022-12-07T19:56:00.097Z,100.00
2022-12-07T19:58:26.738Z,100.00
2022-12-07T20:00:53.438Z,100.00
2022-12-07T20:03:20.475Z,100.00
2022-12-07T20:05:47.578Z,100.00
2022-12-07T20:08:14.326Z,100.00
2022-12-07T20:10:41.294Z,100.00
2022-12-07T20:13:27.200Z,100.00
2022-12-07T20:16:06.404Z,100.00
2022-12-07T20:18:40.403Z,100.00
2022-12-07T20:21:07.302Z,100.00
2022-12-07T20:23:34.128Z,100.00
2022-12-07T20:26:05.095Z,100.00
2022-12-07T20:28:31.893Z,100.00
2022-12-07T20:30:58.620Z,100.00
2022-12-07T20:33:25.331Z,100.00
2022-12-07T20:35:52.214Z,100.00
2022-12-07T20:38:18.780Z,100.00
2022-12-07T20:40:49.482Z,100.00
2022-12-07T20:43:16.238Z,100.00
2022-12-07T20:45:46.842Z,100.00
2022-12-07T20:48:14.856Z,100.00
2022-12-07T20:50:42.523Z,100.00
2022-12-07T20:53:09.414Z,100.00
2022-12-07T20:55:36.263Z,100.00
2022-12-07T20:58:02.873Z,100.00
2022-12-07T21:00:29.654Z,100.00
2022-12-07T21:02:57.363Z,100.00
2022-12-07T21:05:24.545Z,100.00
2022-12-07T21:07:51.154Z,100.00
2022-12-07T21:10:17.870Z,100.00
2022-12-07T21:12:44.444Z,100.00
2022-12-07T21:15:11.135Z,100.00
2022-12-07T21:17:38.309Z,100.00
2022-12-07T21:20:05.358Z,100.00
2022-12-07T21:22:32.044Z,100.00
2022-12-07T21:24:58.665Z,100.00
2022-12-07T21:27:25.275Z,100.00
2022-12-07T21:29:54.287Z,100.00
2022-12-07T21:32:21.207Z,100.00
2022-12-07T21:34:47.869Z,100.00
2022-12-07T21:37:14.524Z,100.00
2022-12-07T21:39:41.146Z,100.00
2022-12-07T21:42:07.761Z,100.00
2022-12-07T21:44:34.474Z,100.00
2022-12-07T21:47:01.138Z,100.00
2022-12-07T21:49:27.773Z,100.00
2022-12-07T21:51:54.385Z,100.00
2022-12-07T21:54:25.632Z,100.00
2022-12-07T21:56:52.730Z,100.00
2022-12-07T21:59:21.302Z,100.00
2022-12-07T22:01:48.734Z,100.00
2022-12-07T22:04:20.341Z,100.00
2022-12-07T22:06:47.492Z,100.00
2022-12-07T22:09:14.533Z,100.00
2022-12-07T22:11:41.169Z,100.00
2022-12-07T22:14:26.897Z,100.00
2022-12-07T22:16:53.545Z,100.00
2022-12-07T22:19:20.165Z,100.00
2022-12-07T22:21:46.784Z,100.00
2022-12-07T22:24:14.028Z,100.00
2022-12-07T22:26:41.899Z,100.00
2022-12-07T22:29:08.628Z,100.00
2022-12-07T22:31:35.745Z,100.00
2022-12-07T22:34:02.499Z,100.00
2022-12-07T22:36:29.810Z,100.00
2022-12-07T22:38:56.678Z,100.00
2022-12-07T22:41:27.934Z,100.00
2022-12-07T22:43:54.851Z,100.00
2022-12-07T22:46:21.737Z,100.00
2022-12-07T22:48:48.317Z,100.00
2022-12-07T22:51:28.555Z,100.00
2022-12-07T22:53:55.262Z,100.00
2022-12-07T22:56:22.564Z,100.00
2022-12-07T22:58:49.650Z,100.00
2022-12-07T23:01:17.353Z,100.00
2022-12-07T23:03:44.473Z,100.00
2022-12-07T23:06:14.169Z,100.00
2022-12-07T23:08:40.854Z,100.00
2022-12-07T23:11:37.810Z,100.00
2022-12-07T23:14:05.966Z,100.00
2022-12-07T23:16:32.613Z,100.00
2022-12-07T23:18:59.375Z,100.00
2022-12-07T23:21:26.022Z,100.00
2022-12-07T23:23:52.695Z,100.00
2022-12-07T23:26:19.287Z,100.00
2022-12-07T23:28:45.910Z,100.00
2022-12-07T23:31:14.455Z,100.00
2022-12-07T23:33:41.708Z,100.00
2022-12-07T23:36:13.295Z,100.00
2022-12-07T23:38:40.995Z,100.00
2022-12-07T23:41:08.898Z,100.00
2022-12-07T23:43:36.171Z,100.00
2022-12-07T23:46:03.199Z,100.00
2022-12-07T23:48:29.878Z,100.00
2022-12-07T23:50:57.508Z,100.00
2022-12-07T23:53:24.571Z,100.00
2022-12-07T23:55:51.227Z,100.00
2022-12-07T23:58:17.754Z,100.00
